createdAt,value
2017-10-16T00:00:58.436Z,76.90
2017-10-16T00:03:25.841Z,77.30
2017-10-16T00:05:53.230Z,76.38
2017-10-16T00:08:20.684Z,75.95
2017-10-16T00:10:48.078Z,75.78
2017-10-16T00:13:15.485Z,76.44
2017-10-16T00:15:42.880Z,76.70
2017-10-16T00:18:10.270Z,76.61
2017-10-16T00:20:37.665Z,76.20
2017-10-16T00:23:05.143Z,76.73
2017-10-16T00:25:32.540Z,76.32
2017-10-16T00:27:59.947Z,75.88
2017-10-16T00:30:27.338Z,75.95
2017-10-16T00:32:54.764Z,76.15
2017-10-16T00:35:22.160Z,76.01
2017-10-16T00:37:49.676Z,76.57
2017-10-16T00:40:17.072Z,76.38
2017-10-16T00:42:44.457Z,75.99
2017-10-16T00:45:11.859Z,76.32
2017-10-16T00:47:39.258Z,76.49
2017-10-16T00:50:06.653Z,76.52
2017-10-16T00:52:34.042Z,76.52
2017-10-16T00:55:01.446Z,76.87
2017-10-16T00:57:28.847Z,76.83
2017-10-16T00:59:56.247Z,76.55
2017-10-16T01:02:23.730Z,76.63
2017-10-16T01:04:51.122Z,77.43
2017-10-16T01:07:18.520Z,77.22
2017-10-16T01:09:45.919Z,77.31
2017-10-16T01:12:13.354Z,77.57
2017-10-16T01:14:40.755Z,77.84
2017-10-16T01:17:08.166Z,77.59
2017-10-16T01:19:35.566Z,77.36
2017-10-16T01:22:02.959Z,77.36
2017-10-16T01:24:30.358Z,77.04
2017-10-16T01:26:57.758Z,77.65
2017-10-16T01:29:25.186Z,77.75
2017-10-16T01:31:52.583Z,77.25
2017-10-16T01:34:19.990Z,78.39
2017-10-16T01:36:47.390Z,78.46
2017-10-16T01:39:14.871Z,77.74
2017-10-16T01:41:42.275Z,77.27
2017-10-16T01:44:09.774Z,77.37
2017-10-16T01:46:37.171Z,76.85
2017-10-16T01:49:04.565Z,76.93
2017-10-16T01:51:31.968Z,76.83
2017-10-16T01:53:59.399Z,76.92
2017-10-16T01:56:26.850Z,76.85
2017-10-16T01:58:54.249Z,77.37
2017-10-16T02:01:21.667Z,77.62
2017-10-16T02:03:49.050Z,77.79
2017-10-16T02:06:16.445Z,78.01
2017-10-16T02:08:43.849Z,78.04
2017-10-16T02:11:11.266Z,78.43
2017-10-16T02:13:38.670Z,77.58
2017-10-16T02:16:06.071Z,77.22
2017-10-16T02:18:33.464Z,77.24
2017-10-16T02:21:00.915Z,77.66
2017-10-16T02:23:28.304Z,78.40
2017-10-16T02:25:55.707Z,77.77
2017-10-16T02:28:23.099Z,77.50
2017-10-16T02:30:50.520Z,78.12
2017-10-16T02:33:17.911Z,78.41
2017-10-16T02:35:45.297Z,78.31
2017-10-16T02:38:12.696Z,78.87
2017-10-16T02:43:06.768Z,79.77
2017-10-16T02:45:34.165Z,79.83
2017-10-16T02:48:01.558Z,79.75
2017-10-16T02:50:28.946Z,81.15
2017-10-16T02:52:56.360Z,80.70
2017-10-16T02:55:23.748Z,81.15
2017-10-16T02:57:51.142Z,80.43
2017-10-16T03:00:18.538Z,80.28
2017-10-16T03:02:45.937Z,80.76
2017-10-16T03:05:13.335Z,80.92
2017-10-16T03:07:40.743Z,81.59
2017-10-16T03:10:08.140Z,81.28
2017-10-16T03:12:35.543Z,81.32
2017-10-16T03:15:02.936Z,81.39
2017-10-16T03:17:36.985Z,81.03
2017-10-16T03:20:04.376Z,80.62
2017-10-16T03:22:31.843Z,80.85
2017-10-16T03:24:59.237Z,80.78
2017-10-16T03:27:26.635Z,80.14
2017-10-16T03:29:54.035Z,79.24
2017-10-16T03:32:21.431Z,79.31
2017-10-16T03:34:48.829Z,79.65
2017-10-16T03:37:16.214Z,78.99
2017-10-16T03:39:43.747Z,78.93
2017-10-16T03:42:11.134Z,78.57
2017-10-16T03:44:38.539Z,78.18
2017-10-16T03:47:05.926Z,78.32
2017-10-16T03:49:33.332Z,78.45
2017-10-16T03:52:00.806Z,78.81
2017-10-16T03:54:28.215Z,78.90
2017-10-16T03:56:55.723Z,78.74
2017-10-16T03:59:23.126Z,80.06
2017-10-16T04:01:50.627Z,79.92
2017-10-16T04:04:18.022Z,80.32
2017-10-16T04:06:45.410Z,80.75
2017-10-16T04:09:12.814Z,81.04
2017-10-16T04:11:40.207Z,81.20
2017-10-16T04:14:07.601Z,80.59
2017-10-16T04:16:35.004Z,79.74
2017-10-16T04:19:02.420Z,80.05
2017-10-16T04:21:29.828Z,81.02
2017-10-16T04:23:57.231Z,80.73
2017-10-16T04:26:24.620Z,80.10
2017-10-16T04:28:52.006Z,80.34
2017-10-16T04:31:19.415Z,80.25
2017-10-16T04:33:46.840Z,80.89
2017-10-16T04:36:14.217Z,80.93
2017-10-16T04:38:41.606Z,80.26
2017-10-16T04:41:09.025Z,79.44
2017-10-16T04:43:36.423Z,79.73
2017-10-16T04:46:03.822Z,78.95
2017-10-16T04:48:31.223Z,79.40
2017-10-16T04:50:58.636Z,79.54
2017-10-16T04:53:26.019Z,79.18
2017-10-16T04:55:53.424Z,79.58
2017-10-16T04:58:20.838Z,78.80
2017-10-16T05:00:48.258Z,78.00
2017-10-16T05:03:15.650Z,77.89
2017-10-16T05:05:43.070Z,77.59
2017-10-16T05:08:10.467Z,77.56
2017-10-16T05:10:37.863Z,77.10
2017-10-16T05:13:05.341Z,77.75
2017-10-16T05:15:32.731Z,77.71
2017-10-16T05:18:00.167Z,77.34
2017-10-16T05:20:27.546Z,76.95
2017-10-16T05:22:54.969Z,77.00
2017-10-16T05:25:22.374Z,76.33
2017-10-16T05:27:49.874Z,76.71
2017-10-16T05:30:17.267Z,76.57
2017-10-16T05:32:44.670Z,76.50
2017-10-16T05:35:12.068Z,76.66
2017-10-16T05:37:39.467Z,76.41
2017-10-16T05:40:06.859Z,76.29
2017-10-16T05:42:34.262Z,76.36
2017-10-16T05:45:01.763Z,76.67
2017-10-16T05:47:29.180Z,76.62
2017-10-16T05:49:56.566Z,77.49
2017-10-16T05:52:23.954Z,77.03
2017-10-16T05:54:51.370Z,77.21
2017-10-16T05:57:18.838Z,78.81
2017-10-16T05:59:46.242Z,78.11
2017-10-16T06:02:13.654Z,77.45
2017-10-16T06:04:41.050Z,77.36
2017-10-16T06:07:08.443Z,77.09
2017-10-16T06:09:35.929Z,76.70
2017-10-16T06:12:03.323Z,75.94
2017-10-16T06:14:30.734Z,75.39
2017-10-16T06:16:58.126Z,75.20
2017-10-16T06:19:25.526Z,75.32
2017-10-16T06:21:52.994Z,75.73
2017-10-16T06:24:20.390Z,75.42
2017-10-16T06:26:47.783Z,74.73
2017-10-16T06:29:15.182Z,74.11
2017-10-16T06:31:42.574Z,73.37
2017-10-16T06:34:09.971Z,72.73
2017-10-16T06:36:37.368Z,71.79
2017-10-16T06:39:04.791Z,70.33
2017-10-16T06:41:32.199Z,68.91
2017-10-16T06:43:59.591Z,67.23
2017-10-16T06:46:27.019Z,66.19
2017-10-16T06:48:54.411Z,64.96
2017-10-16T06:51:21.815Z,64.17
2017-10-16T06:53:49.212Z,62.40
2017-10-16T06:56:16.631Z,60.62
2017-10-16T06:58:44.132Z,59.54
2017-10-16T07:01:11.536Z,58.30
2017-10-16T07:03:38.931Z,56.69
2017-10-16T07:06:06.328Z,55.72
2017-10-16T07:08:33.711Z,53.67
2017-10-16T07:11:01.112Z,52.23
2017-10-16T07:13:28.502Z,50.57
2017-10-16T07:15:55.898Z,49.18
2017-10-16T07:18:23.292Z,48.60
2017-10-16T07:20:50.730Z,47.12
2017-10-16T07:23:18.126Z,46.36
2017-10-16T07:25:45.538Z,45.23
2017-10-16T07:28:12.945Z,44.44
2017-10-16T07:30:40.342Z,43.82
2017-10-16T07:33:07.748Z,43.90
2017-10-16T07:35:35.172Z,43.67
2017-10-16T07:38:02.564Z,42.27
2017-10-16T07:40:29.959Z,41.09
2017-10-16T07:42:57.353Z,40.75
2017-10-16T07:45:24.755Z,39.52
2017-10-16T07:47:52.142Z,39.42
2017-10-16T07:50:19.534Z,38.62
2017-10-16T07:52:46.947Z,38.26
2017-10-16T07:55:14.335Z,38.33
2017-10-16T07:57:41.737Z,37.91
2017-10-16T08:00:09.127Z,38.01
2017-10-16T08:02:36.531Z,37.13
2017-10-16T08:05:03.929Z,38.19
2017-10-16T08:07:31.325Z,37.01
2017-10-16T08:09:58.724Z,37.08
2017-10-16T08:12:26.172Z,36.53
2017-10-16T08:14:53.563Z,36.28
2017-10-16T08:17:20.956Z,36.84
2017-10-16T08:19:48.355Z,35.64
2017-10-16T08:22:15.818Z,38.23
2017-10-16T08:24:43.202Z,38.23
2017-10-16T08:27:10.598Z,39.11
2017-10-16T08:29:37.999Z,41.16
2017-10-16T08:32:05.450Z,40.26
2017-10-16T08:34:32.843Z,39.44
2017-10-16T08:37:00.243Z,39.81
2017-10-16T08:39:27.635Z,39.01
2017-10-16T08:41:55.032Z,38.81
2017-10-16T08:44:22.423Z,38.34
2017-10-16T08:46:49.814Z,37.93
2017-10-16T08:49:17.207Z,38.18
2017-10-16T08:51:44.603Z,37.92
2017-10-16T08:54:11.996Z,38.28
2017-10-16T08:56:39.386Z,37.42
2017-10-16T08:59:06.780Z,37.44
2017-10-16T09:01:34.180Z,37.76
2017-10-16T09:04:01.585Z,39.44
2017-10-16T09:06:28.971Z,38.78
2017-10-16T09:08:56.376Z,37.74
2017-10-16T09:11:23.852Z,37.97
2017-10-16T09:13:51.298Z,38.48
2017-10-16T09:16:18.687Z,38.60
2017-10-16T09:18:46.087Z,38.73
2017-10-16T09:21:13.466Z,37.52
2017-10-16T09:23:40.866Z,37.08
2017-10-16T09:26:08.250Z,36.35
2017-10-16T09:28:35.642Z,36.17
2017-10-16T09:31:03.036Z,38.09
2017-10-16T09:33:30.435Z,38.51
2017-10-16T09:35:57.827Z,39.30
2017-10-16T09:38:25.258Z,39.26
2017-10-16T09:40:52.654Z,39.50
2017-10-16T09:43:20.043Z,39.71
2017-10-16T09:45:47.439Z,40.56
2017-10-16T09:48:14.893Z,40.82
2017-10-16T09:50:42.273Z,41.54
2017-10-16T09:53:09.671Z,40.00
2017-10-16T09:55:37.167Z,39.64
2017-10-16T09:58:04.558Z,40.29
2017-10-16T10:00:31.966Z,41.32
2017-10-16T10:02:59.359Z,40.69
2017-10-16T10:05:26.755Z,41.00
2017-10-16T10:07:54.146Z,42.34
2017-10-16T10:10:21.595Z,42.58
2017-10-16T10:12:48.982Z,42.54
2017-10-16T10:15:16.379Z,42.74
2017-10-16T10:17:43.762Z,43.14
2017-10-16T10:20:11.158Z,43.02
2017-10-16T10:22:38.541Z,45.62
2017-10-16T10:25:05.949Z,46.71
2017-10-16T10:27:33.331Z,48.08
2017-10-16T10:30:00.742Z,47.65
2017-10-16T10:32:28.207Z,49.07
2017-10-16T10:34:55.623Z,48.58
2017-10-16T10:37:22.995Z,49.98
2017-10-16T10:39:50.390Z,50.51
2017-10-16T10:42:17.790Z,52.41
2017-10-16T10:44:45.196Z,53.84
2017-10-16T10:47:12.644Z,54.58
2017-10-16T10:49:40.047Z,53.98
2017-10-16T10:52:07.438Z,55.02
2017-10-16T10:54:34.843Z,55.75
2017-10-16T10:57:02.248Z,53.97
2017-10-16T10:59:29.639Z,54.41
2017-10-16T11:01:57.038Z,53.99
2017-10-16T11:04:24.542Z,54.07
2017-10-16T11:06:51.987Z,53.34
2017-10-16T11:09:19.438Z,54.09
2017-10-16T11:11:46.838Z,54.01
2017-10-16T11:14:14.230Z,54.81
2017-10-16T11:16:41.635Z,54.92
2017-10-16T11:19:09.072Z,54.23
2017-10-16T11:21:36.483Z,52.90
2017-10-16T11:24:03.864Z,53.61
2017-10-16T11:26:31.257Z,52.49
2017-10-16T11:28:58.698Z,51.39
2017-10-16T11:31:26.174Z,52.64
2017-10-16T11:33:53.573Z,51.23
2017-10-16T11:36:20.967Z,52.19
2017-10-16T11:38:48.354Z,52.34
2017-10-16T11:41:15.760Z,52.18
2017-10-16T11:43:43.152Z,51.95
2017-10-16T11:46:10.542Z,50.91
2017-10-16T11:48:37.930Z,50.90
2017-10-16T11:51:05.322Z,51.30
2017-10-16T11:53:32.720Z,51.68
2017-10-16T11:56:00.111Z,52.59
2017-10-16T11:58:27.591Z,50.97
2017-10-16T12:00:55.024Z,50.80
2017-10-16T12:03:22.479Z,50.97
2017-10-16T12:05:49.870Z,50.41
2017-10-16T12:08:17.266Z,49.19
2017-10-16T12:10:44.758Z,48.51
2017-10-16T12:13:12.158Z,48.99
2017-10-16T12:15:39.550Z,47.19
2017-10-16T12:18:06.943Z,47.68
2017-10-16T12:20:34.341Z,48.93
2017-10-16T12:23:01.728Z,48.75
2017-10-16T12:25:29.186Z,49.30
2017-10-16T12:27:56.659Z,50.55
2017-10-16T12:30:24.046Z,50.10
2017-10-16T12:32:51.447Z,50.41
2017-10-16T12:35:18.909Z,50.01
2017-10-16T12:37:46.314Z,48.19
2017-10-16T12:40:13.722Z,49.26
2017-10-16T12:42:41.114Z,49.43
2017-10-16T12:45:08.534Z,48.83
2017-10-16T12:47:35.930Z,49.01
2017-10-16T12:50:03.319Z,49.24
2017-10-16T12:52:30.716Z,49.88
2017-10-16T12:54:58.099Z,48.95
2017-10-16T12:57:25.497Z,48.86
2017-10-16T12:59:52.894Z,48.93
2017-10-16T13:02:20.291Z,49.18
2017-10-16T13:04:51.075Z,48.81
2017-10-16T13:07:18.457Z,50.27
2017-10-16T13:09:45.854Z,49.25
2017-10-16T13:12:13.342Z,50.30
2017-10-16T13:14:40.735Z,50.71
2017-10-16T13:17:08.136Z,48.35
2017-10-16T13:19:35.546Z,49.64
2017-10-16T13:22:02.935Z,49.40
2017-10-16T13:24:30.331Z,49.80
2017-10-16T13:26:57.731Z,50.03
2017-10-16T13:29:25.174Z,49.26
2017-10-16T13:31:52.567Z,49.39
2017-10-16T13:34:19.959Z,50.47
2017-10-16T13:36:47.341Z,50.08
2017-10-16T13:39:14.756Z,49.22
2017-10-16T13:41:42.141Z,50.25
2017-10-16T13:44:09.535Z,48.86
2017-10-16T13:46:36.928Z,47.82
2017-10-16T13:49:04.327Z,49.50
2017-10-16T13:51:31.715Z,49.74
2017-10-16T13:53:59.107Z,48.94
2017-10-16T13:56:26.500Z,50.27
2017-10-16T13:58:53.907Z,51.32
2017-10-16T14:01:21.299Z,50.65
2017-10-16T14:03:48.714Z,50.60
2017-10-16T14:06:16.120Z,51.25
2017-10-16T14:08:43.510Z,50.49
2017-10-16T14:11:10.911Z,50.62
2017-10-16T14:13:38.316Z,50.88
2017-10-16T14:16:05.698Z,51.60
2017-10-16T14:18:33.095Z,50.42
2017-10-16T14:21:00.490Z,50.94
2017-10-16T14:23:28.692Z,51.17
2017-10-16T14:25:56.078Z,51.30
2017-10-16T14:28:23.495Z,51.35
2017-10-16T14:30:50.886Z,51.90
2017-10-16T14:33:18.287Z,50.93
2017-10-16T14:35:45.681Z,51.58
2017-10-16T14:38:13.067Z,50.95
2017-10-16T14:40:40.470Z,51.35
2017-10-16T14:43:07.863Z,50.42
2017-10-16T14:45:35.265Z,51.15
2017-10-16T14:48:02.647Z,51.99
2017-10-16T14:50:30.064Z,51.56
2017-10-16T14:52:57.447Z,52.16
2017-10-16T14:55:24.846Z,51.87
2017-10-16T14:57:52.243Z,51.93
2017-10-16T15:00:19.641Z,51.55
2017-10-16T15:02:47.032Z,52.63
2017-10-16T15:05:14.426Z,52.67
2017-10-16T15:07:41.817Z,53.14
2017-10-16T15:10:09.207Z,52.46
2017-10-16T15:12:36.707Z,52.91
2017-10-16T15:15:04.120Z,52.85
2017-10-16T15:17:31.614Z,52.50
2017-10-16T15:19:59.081Z,52.66
2017-10-16T15:22:26.539Z,52.51
2017-10-16T15:24:53.927Z,53.08
2017-10-16T15:27:21.331Z,53.21
2017-10-16T15:29:48.732Z,51.57
2017-10-16T15:32:16.143Z,51.95
2017-10-16T15:34:43.525Z,52.44
2017-10-16T15:37:10.914Z,52.45
2017-10-16T15:39:38.302Z,52.00
2017-10-16T15:42:05.701Z,52.44
2017-10-16T15:44:33.090Z,53.28
2017-10-16T15:47:00.598Z,53.27
2017-10-16T15:49:27.999Z,52.87
2017-10-16T15:51:55.393Z,53.02
2017-10-16T15:54:22.785Z,53.04
2017-10-16T15:56:50.175Z,53.26
2017-10-16T15:59:17.574Z,53.32
2017-10-16T16:01:44.977Z,53.92
2017-10-16T16:04:12.362Z,54.56
2017-10-16T16:06:39.843Z,54.75
2017-10-16T16:09:07.231Z,55.40
2017-10-16T16:11:34.631Z,55.54
2017-10-16T16:14:02.028Z,55.91
2017-10-16T16:16:29.435Z,56.35
2017-10-16T16:18:56.831Z,56.86
2017-10-16T16:21:24.290Z,57.13
2017-10-16T16:23:52.468Z,57.75
2017-10-16T16:26:19.852Z,59.16
2017-10-16T16:28:47.278Z,59.45
2017-10-16T16:31:14.667Z,59.88
2017-10-16T16:33:42.071Z,60.30
2017-10-16T16:36:09.462Z,60.92
2017-10-16T16:38:36.903Z,61.77
2017-10-16T16:41:04.291Z,62.01
2017-10-16T16:43:31.694Z,62.28
2017-10-16T16:45:59.092Z,62.51
2017-10-16T16:48:26.490Z,62.77
2017-10-16T16:50:53.894Z,63.44
2017-10-16T16:53:21.302Z,63.54
2017-10-16T16:55:48.695Z,64.08
2017-10-16T16:58:16.095Z,63.44
2017-10-16T17:00:43.490Z,63.76
2017-10-16T17:03:10.900Z,64.29
2017-10-16T17:05:38.321Z,63.90
2017-10-16T17:08:05.772Z,63.71
2017-10-16T17:10:33.171Z,64.09
2017-10-16T17:13:00.554Z,64.07
2017-10-16T17:15:28.035Z,64.21
2017-10-16T17:17:55.508Z,64.35
2017-10-16T17:20:22.911Z,64.10
2017-10-16T17:22:50.329Z,64.73
2017-10-16T17:25:17.719Z,65.60
2017-10-16T17:27:45.115Z,66.13
2017-10-16T17:30:12.522Z,66.37
2017-10-16T17:32:39.910Z,66.65
2017-10-16T17:35:07.316Z,66.87
2017-10-16T17:37:34.714Z,67.00
2017-10-16T17:40:02.126Z,67.79
2017-10-16T17:42:29.557Z,68.21
2017-10-16T17:44:56.967Z,68.03
2017-10-16T17:47:24.475Z,67.50
2017-10-16T17:49:51.865Z,68.19
2017-10-16T17:52:19.276Z,68.09
2017-10-16T17:54:46.666Z,69.06
2017-10-16T17:57:14.077Z,68.92
2017-10-16T17:59:41.481Z,69.39
2017-10-16T18:02:08.913Z,69.23
2017-10-16T18:04:36.383Z,69.05
2017-10-16T18:07:03.780Z,68.45
2017-10-16T18:09:31.179Z,68.42
2017-10-16T18:11:58.578Z,68.78
2017-10-16T18:14:25.997Z,68.90
2017-10-16T18:16:53.403Z,68.97
2017-10-16T18:19:20.790Z,69.66
2017-10-16T18:21:48.186Z,69.79
2017-10-16T18:24:15.582Z,69.54
2017-10-16T18:26:42.986Z,69.70
2017-10-16T18:29:10.384Z,70.14
2017-10-16T18:31:37.796Z,70.72
2017-10-16T18:34:05.226Z,70.42
2017-10-16T18:36:32.634Z,70.30
2017-10-16T18:39:00.022Z,71.66
2017-10-16T18:41:27.515Z,71.62
2017-10-16T18:43:54.966Z,71.23
2017-10-16T18:46:22.398Z,70.98
2017-10-16T18:48:49.760Z,71.23
2017-10-16T18:51:17.195Z,71.54
2017-10-16T18:53:44.786Z,71.21
2017-10-16T18:56:12.182Z,71.20
2017-10-16T18:58:39.595Z,71.37
2017-10-16T19:01:06.994Z,71.80
2017-10-16T19:03:34.398Z,72.11
2017-10-16T19:06:01.791Z,72.33
2017-10-16T19:08:29.224Z,72.04
2017-10-16T19:10:56.624Z,72.31
2017-10-16T19:13:24.026Z,72.26
2017-10-16T19:15:51.499Z,72.74
2017-10-16T19:18:18.952Z,72.96
2017-10-16T19:20:46.338Z,72.59
2017-10-16T19:23:13.751Z,72.91
2017-10-16T19:25:41.150Z,72.40
2017-10-16T19:28:08.582Z,71.73
2017-10-16T19:30:36.036Z,71.65
2017-10-16T19:33:03.432Z,71.75
2017-10-16T19:35:30.834Z,72.31
2017-10-16T19:37:58.269Z,72.78
2017-10-16T19:40:25.668Z,72.82
2017-10-16T19:42:53.067Z,72.80
2017-10-16T19:45:20.570Z,72.79
2017-10-16T19:47:48.053Z,73.05
2017-10-16T19:50:15.438Z,73.51
2017-10-16T19:52:42.938Z,73.10
2017-10-16T19:55:10.363Z,73.02
2017-10-16T19:57:37.765Z,73.70
2017-10-16T20:00:05.211Z,74.25
2017-10-16T20:02:32.662Z,74.34
2017-10-16T20:05:00.105Z,74.14
2017-10-16T20:07:27.478Z,73.45
2017-10-16T20:09:54.878Z,73.40
2017-10-16T20:12:22.290Z,72.55
2017-10-16T20:14:49.690Z,72.21
2017-10-16T20:17:17.088Z,72.08
2017-10-16T20:19:44.486Z,72.15
2017-10-16T20:22:11.911Z,72.14
2017-10-16T20:24:39.319Z,72.22
2017-10-16T20:27:06.835Z,71.51
2017-10-16T20:29:34.226Z,71.60
2017-10-16T20:32:01.740Z,71.31
2017-10-16T20:34:29.127Z,71.00
2017-10-16T20:36:56.538Z,72.57
2017-10-16T20:39:23.935Z,71.74
2017-10-16T20:41:51.335Z,71.50
2017-10-16T20:44:18.734Z,72.04
2017-10-16T20:46:46.141Z,71.51
2017-10-16T20:49:13.574Z,72.14
2017-10-16T20:51:40.975Z,71.81
2017-10-16T20:54:08.362Z,71.85
2017-10-16T20:56:35.771Z,72.84
2017-10-16T20:59:03.170Z,72.63
2017-10-16T21:01:30.568Z,73.23
2017-10-16T21:03:58.066Z,73.12
2017-10-16T21:06:25.474Z,72.54
2017-10-16T21:08:52.879Z,72.46
2017-10-16T21:11:20.311Z,72.13
2017-10-16T21:13:47.708Z,72.00
2017-10-16T21:16:15.102Z,72.10
2017-10-16T21:18:42.507Z,72.64
2017-10-16T21:21:09.904Z,72.09
2017-10-16T21:23:37.306Z,71.57
2017-10-16T21:26:04.703Z,71.07
2017-10-16T21:28:32.109Z,70.59
2017-10-16T21:30:59.599Z,70.46
2017-10-16T21:33:26.985Z,70.56
2017-10-16T21:35:54.380Z,71.00
2017-10-16T21:38:21.769Z,70.30
2017-10-16T21:40:49.167Z,69.99
2017-10-16T21:43:16.564Z,70.01
2017-10-16T21:45:43.958Z,69.68
2017-10-16T21:48:11.354Z,69.56
2017-10-16T21:50:38.746Z,69.35
2017-10-16T21:53:06.146Z,68.70
2017-10-16T21:55:33.539Z,69.11
2017-10-16T21:58:00.985Z,69.12
2017-10-16T22:00:28.390Z,69.19
2017-10-16T22:02:55.815Z,68.92
2017-10-16T22:05:23.214Z,68.88
2017-10-16T22:07:50.727Z,68.79
2017-10-16T22:10:18.163Z,68.87
2017-10-16T22:15:23.579Z,69.42
2017-10-16T22:17:51.010Z,69.94
2017-10-16T22:20:18.402Z,70.47
2017-10-16T22:22:45.802Z,71.01
2017-10-16T22:25:13.202Z,71.21
2017-10-16T22:27:40.599Z,72.15
2017-10-16T22:30:08.009Z,72.74
2017-10-16T22:32:35.398Z,72.32
2017-10-16T22:35:02.804Z,72.01
2017-10-16T22:37:30.206Z,71.58
2017-10-16T22:39:57.611Z,71.29
2017-10-16T22:42:25.010Z,71.25
2017-10-16T22:44:52.411Z,70.96
2017-10-16T22:47:32.231Z,70.72
2017-10-16T22:49:59.622Z,71.39
2017-10-16T22:52:27.027Z,71.17
2017-10-16T22:54:54.414Z,71.28
2017-10-16T22:57:21.807Z,71.12
2017-10-16T22:59:49.210Z,71.02
2017-10-16T23:02:16.693Z,70.66
2017-10-16T23:04:44.112Z,70.38
2017-10-16T23:07:11.499Z,70.74
2017-10-16T23:09:38.900Z,70.39
2017-10-16T23:12:06.303Z,69.94
2017-10-16T23:14:33.705Z,70.24
2017-10-16T23:17:01.103Z,69.92
2017-10-16T23:19:28.507Z,69.82
2017-10-16T23:21:55.898Z,70.66
2017-10-16T23:24:23.304Z,70.40
2017-10-16T23:26:50.704Z,70.51
2017-10-16T23:29:18.099Z,71.24
2017-10-16T23:31:45.504Z,70.65
2017-10-16T23:34:13.011Z,70.76
2017-10-16T23:36:40.429Z,70.87
2017-10-16T23:39:07.824Z,70.77
2017-10-16T23:41:35.384Z,70.73
2017-10-16T23:44:02.779Z,70.67
2017-10-16T23:46:30.183Z,70.64
2017-10-16T23:48:57.581Z,70.68
2017-10-16T23:51:24.988Z,71.06
2017-10-16T23:53:52.379Z,70.81
2017-10-16T23:56:19.787Z,71.28
2017-10-16T23:58:47.191Z,71.24
